Historique des mesures à Cassis (13260), France
Quotidien Résumé Juin 10, 2021 Unités:  US    Métrique   Métrique/US
Quotidien Hebdomadaire Mensuel Annuel
  Maximum: Minimum: Moyenne:
Température: 67.6 °F 57 °F 61.9 °F
Point de rosée: 56.3 °F 46.9 °F 52 °F
Humidité: 83% 54% 71%
Vitesse du vent: 15mph 0mph 2.5mph
Rafales: 16.1mph - -
Vent- - West
Pression: 30.1 in 30 in -
Précipitations: 0 in    
Historical Graphs
 
 
Mesures pour : Juin 10, 2021
Heure Temperature Point de rosée Pression Vent Vitesse du vent Rafales Humidité Pluie (par heure)
00:11 59.7 °F 51.1 °F 30.1 in NW 2.2 mph 4.9 mph 73% 0 in
01:11 59.7 °F 51.1 °F 30.1 in WNW 2.5 mph 3.8 mph 73% 0 in
02:11 60.1 °F 51.8 °F 30.1 in Calm   2 mph 74% 0 in
03:11 61.2 °F 53.2 °F 30.1 in Calm   3.4 mph 75% 0 in
04:11 60.4 °F 54.3 °F 30.1 in Calm     80% 0 in
05:11 59.5 °F 54.3 °F 30.1 in Calm   0.9 mph 83% 0 in
06:11 59.2 °F 54 °F 30.1 in West 0.9 mph 1.4 mph 83% 0 in
07:11 58.1 °F 52.9 °F 30.1 in WNW 1.1 mph 2.5 mph 83% 0 in
08:11 57 °F 51.6 °F 30.1 in NW 4 mph 6.7 mph 82% 0 in
09:11 58.3 °F 53.1 °F 30.1 in Calm   2.7 mph 83% 0 in
10:11 61.9 °F 54.9 °F 30.1 in WNW 3.4 mph 5.6 mph 78% 0 in
11:11 64 °F 55.6 °F 30.1 in WNW 6 mph 8.1 mph 74% 0 in
12:11 65.3 °F 55.4 °F 30.1 in Calm   7.8 mph 70% 0 in
13:11 65.3 °F 54.5 °F 30.1 in Calm   5.6 mph 68% 0 in
14:11 67.3 °F 56.3 °F 30.1 in SSE 2.2 mph 6.3 mph 68% 0 in
15:11 67.3 °F 54.7 °F 30 in Calm   14.1 mph 64% 0 in
16:11 67.6 °F 53.8 °F 30 in West 15 mph 16.1 mph 61% 0 in
17:11 67.3 °F 52 °F 30 in West 7.6 mph 15 mph 58% 0 in
18:11 66.4 °F 49.3 °F 30 in WSW 4 mph 12.7 mph 54% 0 in
19:11 63.5 °F 47.5 °F 30 in Calm   5.2 mph 56% 0 in
20:11 61.3 °F 47.5 °F 30 in West 2.9 mph 5.6 mph 60% 0 in
21:11 59.5 °F 46.9 °F 30 in Calm   1.8 mph 63% 0 in
22:11 57.9 °F 46.9 °F 30 in Calm   2.7 mph 67% 0 in
23:11 57 °F 46.9 °F 30 in NNW 7.4 mph 7.4 mph 69% 0 in
Observations météo à CASSIS
WU-History script by Weather Underground - 2 mb